createdAt,value
2023-10-09T00:00:41.500Z,5.18
2023-10-09T00:05:45.575Z,4.93
2023-10-09T00:10:50.376Z,5.15
2023-10-09T00:15:54.982Z,6.10
2023-10-09T00:21:13.250Z,5.25
2023-10-09T00:26:17.737Z,5.30
2023-10-09T00:31:31.094Z,4.85
2023-10-09T00:36:33.973Z,4.85
2023-10-09T00:41:36.592Z,4.75
2023-10-09T00:46:43.243Z,5.60
2023-10-09T00:51:57.685Z,4.93
2023-10-09T00:57:07.808Z,6.07
2023-10-09T01:02:10.938Z,4.57
2023-10-09T01:07:22.484Z,5.07
2023-10-09T01:12:23.944Z,5.47
2023-10-09T01:17:37.392Z,4.40
2023-10-09T01:22:39.419Z,4.18
2023-10-09T01:27:41.485Z,4.47
2023-10-09T01:32:46.554Z,4.20
2023-10-09T01:37:52.656Z,4.00
2023-10-09T01:42:54.194Z,4.07
2023-10-09T01:47:55.907Z,3.92
2023-10-09T01:52:58.063Z,4.07
2023-10-09T01:58:02.892Z,3.65
2023-10-09T02:03:07.059Z,3.72
2023-10-09T02:08:14.049Z,3.92
2023-10-09T02:13:18.161Z,4.25
2023-10-09T02:18:24.185Z,3.38
2023-10-09T02:23:31.479Z,4.00
2023-10-09T02:28:36.153Z,4.05
2023-10-09T02:33:40.335Z,3.58
2023-10-09T02:38:42.784Z,3.95
2023-10-09T02:43:48.498Z,3.50
2023-10-09T02:48:53.992Z,3.58
2023-10-09T02:54:00.737Z,3.25
2023-10-09T02:59:08.040Z,3.17
2023-10-09T03:04:12.141Z,3.15
2023-10-09T03:09:20.678Z,2.80
2023-10-09T03:14:27.602Z,2.90
2023-10-09T03:19:30.900Z,2.80
2023-10-09T03:24:32.887Z,2.53
2023-10-09T03:29:34.742Z,2.90
2023-10-09T03:34:36.267Z,2.47
2023-10-09T03:39:43.461Z,2.72
2023-10-09T03:44:50.170Z,2.50
2023-10-09T03:49:55.721Z,2.70
2023-10-09T03:54:57.433Z,2.58
2023-10-09T03:59:58.962Z,2.30
2023-10-09T04:05:00.795Z,2.20
2023-10-09T04:10:25.254Z,2.40
2023-10-09T04:15:26.971Z,2.58
2023-10-09T04:20:34.308Z,2.10
2023-10-09T04:25:46.567Z,1.98
2023-10-09T04:30:54.688Z,2.20
2023-10-09T04:36:21.723Z,2.10
2023-10-09T04:41:28.821Z,1.90
2023-10-09T04:46:44.722Z,1.75
2023-10-09T04:52:02.326Z,1.90
2023-10-09T04:57:04.167Z,2.08
2023-10-09T05:02:06.943Z,1.88
2023-10-09T05:07:46.901Z,1.58
2023-10-09T05:12:48.876Z,1.80
2023-10-09T05:17:57.553Z,1.80
2023-10-09T05:22:59.523Z,2.22
2023-10-09T05:28:21.016Z,1.63
2023-10-09T05:33:34.605Z,1.58
2023-10-09T05:38:36.939Z,1.75
2023-10-09T05:43:57.112Z,1.60
2023-10-09T05:49:10.247Z,1.90
2023-10-09T05:54:30.688Z,1.48
2023-10-09T05:59:51.238Z,1.40
2023-10-09T06:04:55.924Z,2.08
2023-10-09T06:09:58.822Z,1.85
2023-10-09T06:15:27.038Z,1.92
2023-10-09T06:21:03.479Z,2.45
2023-10-09T06:26:24.740Z,2.35
2023-10-09T06:31:53.321Z,2.20
2023-10-09T06:42:10.573Z,2.22
2023-10-09T06:47:14.157Z,2.50
2023-10-09T06:52:16.770Z,2.30
2023-10-09T06:57:38.816Z,2.55
2023-10-09T07:02:47.326Z,2.30
2023-10-09T07:07:56.202Z,2.70
2023-10-09T07:12:58.355Z,2.53
2023-10-09T07:18:19.828Z,2.50
2023-10-09T07:23:22.736Z,2.08
2023-10-09T07:28:31.037Z,2.03
2023-10-09T07:33:53.411Z,2.07
2023-10-09T07:38:56.313Z,2.22
2023-10-09T07:43:58.599Z,2.72
2023-10-09T07:49:10.592Z,2.28
2023-10-09T07:54:15.823Z,1.98
2023-10-09T07:59:19.719Z,2.65
2023-10-09T08:04:44.810Z,2.35
2023-10-09T08:09:49.644Z,2.50
2023-10-09T08:14:51.141Z,2.50
2023-10-09T08:19:55.750Z,2.40
2023-10-09T08:24:58.436Z,1.80
2023-10-09T08:30:18.906Z,2.30
2023-10-09T08:35:30.801Z,2.00
2023-10-09T08:40:40.325Z,1.73
2023-10-09T08:45:46.877Z,1.90
2023-10-09T08:50:55.363Z,1.75
2023-10-09T08:55:56.942Z,1.57
2023-10-09T09:00:59.932Z,1.85
2023-10-09T09:06:03.072Z,1.50
2023-10-09T09:11:29.145Z,1.65
2023-10-09T09:16:31.970Z,1.65
2023-10-09T09:21:41.901Z,1.88
2023-10-09T09:26:47.410Z,1.90
2023-10-09T09:32:07.570Z,2.00
2023-10-09T09:37:14.973Z,1.85
2023-10-09T09:42:18.582Z,1.50
2023-10-09T09:47:28.370Z,2.15
2023-10-09T09:52:39.348Z,2.30
2023-10-09T09:57:42.323Z,2.13
2023-10-09T10:02:46.445Z,3.00
2023-10-09T10:07:50.602Z,3.10
2023-10-09T10:13:02.431Z,2.90
2023-10-09T10:18:08.462Z,2.40
2023-10-09T10:23:18.763Z,1.88
2023-10-09T10:28:54.027Z,2.20
2023-10-09T10:33:59.591Z,1.73
2023-10-09T10:39:05.747Z,2.25
2023-10-09T10:44:25.588Z,1.80
2023-10-09T10:49:37.627Z,2.00
2023-10-09T10:54:39.179Z,2.70
2023-10-09T10:59:42.813Z,1.83
2023-10-09T11:04:54.929Z,1.65
2023-10-09T11:10:10.468Z,1.88
2023-10-09T11:15:23.460Z,1.67
2023-10-09T11:20:33.316Z,2.03
2023-10-09T11:25:35.061Z,2.45
2023-10-09T11:30:37.271Z,2.00
2023-10-09T11:35:38.859Z,2.13
2023-10-09T11:41:05.156Z,2.10
2023-10-09T11:46:30.788Z,1.85
2023-10-09T11:51:32.363Z,2.30
2023-10-09T11:56:34.070Z,2.50
2023-10-09T12:01:38.394Z,2.65
2023-10-09T12:06:40.363Z,3.03
2023-10-09T12:11:54.056Z,2.20
2023-10-09T12:17:06.625Z,2.10
2023-10-09T12:22:12.067Z,2.25
2023-10-09T12:27:13.802Z,2.00
2023-10-09T12:32:20.548Z,2.55
2023-10-09T12:37:22.358Z,2.50
2023-10-09T12:42:23.973Z,2.72
2023-10-09T12:47:26.339Z,3.05
2023-10-09T12:52:31.102Z,2.60
2023-10-09T12:57:32.779Z,2.97
2023-10-09T13:02:35.041Z,2.85
2023-10-09T13:07:36.737Z,2.83
2023-10-09T13:12:44.294Z,2.55
2023-10-09T13:17:45.891Z,2.60
2023-10-09T13:22:50.967Z,3.30
2023-10-09T13:27:52.471Z,2.75
2023-10-09T13:32:54.040Z,3.47
2023-10-09T13:37:55.591Z,3.30
2023-10-09T13:42:59.799Z,2.67
2023-10-09T13:48:04.249Z,3.17
2023-10-09T13:53:13.815Z,3.00
2023-10-09T13:58:21.905Z,3.40
2023-10-09T14:03:25.709Z,3.50
2023-10-09T14:08:30.065Z,3.92
2023-10-09T14:13:31.585Z,3.60
2023-10-09T14:18:33.026Z,4.22
2023-10-09T14:23:35.769Z,4.03
2023-10-09T14:28:38.561Z,3.83
2023-10-09T14:33:41.632Z,6.18
2023-10-09T14:38:43.505Z,4.82
2023-10-09T14:43:45.073Z,4.82
2023-10-09T14:48:47.366Z,5.22
2023-10-09T14:53:50.537Z,5.45
2023-10-09T14:58:52.527Z,4.95
2023-10-09T15:03:56.359Z,4.70
2023-10-09T15:09:09.121Z,5.07
2023-10-09T15:14:10.626Z,4.18
2023-10-09T15:19:12.117Z,3.88
2023-10-09T15:24:20.472Z,4.30
2023-10-09T15:29:29.127Z,4.13
2023-10-09T15:34:32.287Z,3.67
2023-10-09T15:39:33.942Z,2.90
2023-10-09T15:44:38.254Z,3.00
2023-10-09T15:49:45.154Z,2.50
2023-10-09T15:54:49.128Z,3.50
2023-10-09T15:59:51.647Z,3.30
2023-10-09T16:04:54.240Z,3.13
2023-10-09T16:09:56.586Z,3.40
2023-10-09T16:14:58.150Z,3.55
2023-10-09T16:20:01.001Z,3.63
2023-10-09T16:25:10.392Z,3.85
2023-10-09T16:30:14.199Z,4.38
2023-10-09T16:35:15.837Z,3.60
2023-10-09T16:40:21.270Z,4.40
2023-10-09T16:45:22.970Z,4.30
2023-10-09T16:50:29.602Z,4.05
2023-10-09T16:55:31.641Z,4.10
2023-10-09T17:00:36.315Z,4.32
2023-10-09T17:05:52.858Z,4.30
2023-10-09T17:10:54.385Z,4.03
2023-10-09T17:15:56.414Z,3.75
2023-10-09T17:21:00.695Z,3.70
2023-10-09T17:26:05.318Z,5.13
2023-10-09T17:31:06.929Z,10.40
2023-10-09T17:36:08.455Z,6.13
2023-10-09T17:41:10.197Z,7.93
2023-10-09T17:46:13.090Z,5.35
2023-10-09T17:51:15.969Z,4.50
2023-10-09T17:56:19.705Z,21.98
2023-10-09T18:01:25.906Z,12.35
2023-10-09T18:06:27.734Z,31.00
2023-10-09T18:11:29.650Z,16.45
2023-10-09T18:16:31.160Z,7.40
2023-10-09T18:21:36.958Z,12.45
2023-10-09T18:26:38.445Z,5.95
2023-10-09T18:31:41.971Z,7.78
2023-10-09T18:36:43.489Z,4.97
2023-10-09T18:41:45.762Z,18.52
2023-10-09T18:46:48.397Z,8.63
2023-10-09T18:51:49.975Z,8.02
2023-10-09T18:56:51.631Z,10.95
2023-10-09T19:01:54.170Z,14.45
2023-10-09T19:06:55.661Z,10.75
2023-10-09T19:11:58.506Z,8.73
2023-10-09T19:17:01.402Z,12.05
2023-10-09T19:22:03.257Z,23.63
2023-10-09T19:27:06.033Z,9.75
2023-10-09T19:32:08.947Z,15.88
2023-10-09T19:37:10.465Z,8.45
2023-10-09T19:42:13.040Z,11.80
2023-10-09T19:47:14.513Z,17.80
2023-10-09T19:52:16.004Z,28.35
2023-10-09T19:57:18.564Z,10.52
2023-10-09T20:02:20.427Z,12.07
2023-10-09T20:07:22.068Z,12.40
2023-10-09T20:12:24.179Z,9.70
2023-10-09T20:17:25.661Z,18.52
2023-10-09T20:22:28.639Z,10.73
2023-10-09T20:27:31.619Z,9.65
2023-10-09T20:32:33.157Z,10.75
2023-10-09T20:37:35.422Z,10.10
2023-10-09T20:42:37.416Z,14.30
2023-10-09T20:47:43.971Z,11.10
2023-10-09T20:52:47.051Z,40.45
2023-10-09T20:57:58.053Z,12.98
2023-10-09T21:03:00.290Z,14.75
2023-10-09T21:08:02.175Z,14.55
2023-10-09T21:13:03.959Z,12.32
2023-10-09T21:18:07.213Z,16.45
2023-10-09T21:23:10.819Z,15.45
2023-10-09T21:28:12.437Z,10.93
2023-10-09T21:33:13.939Z,11.23
2023-10-09T21:38:15.891Z,14.13
2023-10-09T21:43:19.161Z,15.23
2023-10-09T21:48:20.715Z,9.07
2023-10-09T21:53:23.657Z,10.27
2023-10-09T21:58:25.603Z,10.10
2023-10-09T22:03:28.445Z,8.77
2023-10-09T22:08:30.188Z,8.07
2023-10-09T22:13:31.628Z,8.07
2023-10-09T22:18:33.546Z,8.45
2023-10-09T22:23:36.673Z,7.75
2023-10-09T22:28:41.852Z,8.05
2023-10-09T22:33:47.223Z,7.10
2023-10-09T22:38:58.436Z,7.38
2023-10-09T22:44:00.689Z,7.40
2023-10-09T22:49:14.592Z,7.57
2023-10-09T22:54:24.124Z,8.48
2023-10-09T22:59:28.181Z,7.88
2023-10-09T23:04:37.833Z,8.82
2023-10-09T23:09:49.306Z,9.32
2023-10-09T23:14:52.199Z,9.15
2023-10-09T23:19:57.240Z,9.90
2023-10-09T23:25:18.909Z,10.45
2023-10-09T23:30:23.810Z,9.57
2023-10-09T23:35:45.037Z,10.98
2023-10-09T23:40:47.122Z,10.68
2023-10-09T23:45:58.120Z,11.23
2023-10-09T23:51:02.309Z,8.93
2023-10-09T23:56:12.139Z,10.93
